sensor_id;sensor_type;location;lat;lon;timestamp;temperature;humidity
43842;DHT22;29495;49.970;20.842;2022-08-26T00:00:45;17.80;99.90
43842;DHT22;29495;49.970;20.842;2022-08-26T00:03:13;17.80;99.90
43842;DHT22;29495;49.970;20.842;2022-08-26T00:05:40;17.80;99.90
43842;DHT22;29495;49.970;20.842;2022-08-26T00:08:07;17.80;99.90
43842;DHT22;29495;49.970;20.842;2022-08-26T00:10:34;17.80;99.90
43842;DHT22;29495;49.970;20.842;2022-08-26T00:12:59;17.80;99.90
43842;DHT22;29495;49.970;20.842;2022-08-26T00:15:25;17.60;99.90
43842;DHT22;29495;49.970;20.842;2022-08-26T00:17:52;17.60;99.90
43842;DHT22;29495;49.970;20.842;2022-08-26T00:20:21;17.60;99.90
43842;DHT22;29495;49.970;20.842;2022-08-26T00:22:47;17.50;99.90
43842;DHT22;29495;49.970;20.842;2022-08-26T00:25:14;17.40;99.90
43842;DHT22;29495;49.970;20.842;2022-08-26T00:27:40;17.20;99.90
43842;DHT22;29495;49.970;20.842;2022-08-26T00:30:10;17.20;99.90
43842;DHT22;29495;49.970;20.842;2022-08-26T00:32:37;17.10;99.90
43842;DHT22;29495;49.970;20.842;2022-08-26T00:35:03;17.20;99.90
43842;DHT22;29495;49.970;20.842;2022-08-26T00:37:30;17.30;99.90
43842;DHT22;29495;49.970;20.842;2022-08-26T00:39:57;17.30;99.90
43842;DHT22;29495;49.970;20.842;2022-08-26T00:42:23;17.30;99.90
43842;DHT22;29495;49.970;20.842;2022-08-26T00:44:49;17.10;99.90
43842;DHT22;29495;49.970;20.842;2022-08-26T00:47:37;17.10;99.90
43842;DHT22;29495;49.970;20.842;2022-08-26T00:50:09;17.00;99.90
43842;DHT22;29495;49.970;20.842;2022-08-26T00:52:36;17.00;99.90
43842;DHT22;29495;49.970;20.842;2022-08-26T00:55:32;16.80;99.90
43842;DHT22;29495;49.970;20.842;2022-08-26T00:58:01;16.70;99.90
43842;DHT22;29495;49.970;20.842;2022-08-26T01:00:30;16.70;99.90
43842;DHT22;29495;49.970;20.842;2022-08-26T01:02:59;16.80;99.90
43842;DHT22;29495;49.970;20.842;2022-08-26T01:05:26;16.90;99.90
43842;DHT22;29495;49.970;20.842;2022-08-26T01:07:52;16.90;99.90
43842;DHT22;29495;49.970;20.842;2022-08-26T01:10:23;17.00;99.90
43842;DHT22;29495;49.970;20.842;2022-08-26T01:12:55;17.00;99.90
43842;DHT22;29495;49.970;20.842;2022-08-26T01:15:25;16.80;99.90
43842;DHT22;29495;49.970;20.842;2022-08-26T01:17:52;16.90;99.90
43842;DHT22;29495;49.970;20.842;2022-08-26T01:20:44;17.10;99.90
43842;DHT22;29495;49.970;20.842;2022-08-26T01:23:12;16.90;99.90
43842;DHT22;29495;49.970;20.842;2022-08-26T01:25:44;16.70;99.90
43842;DHT22;29495;49.970;20.842;2022-08-26T01:28:17;16.60;99.90
43842;DHT22;29495;49.970;20.842;2022-08-26T01:30:47;16.50;99.90
43842;DHT22;29495;49.970;20.842;2022-08-26T01:33:20;16.60;99.90
43842;DHT22;29495;49.970;20.842;2022-08-26T01:35:49;16.40;99.90
43842;DHT22;29495;49.970;20.842;2022-08-26T01:38:16;16.40;99.90
43842;DHT22;29495;49.970;20.842;2022-08-26T01:40:43;16.60;99.90
43842;DHT22;29495;49.970;20.842;2022-08-26T01:43:15;16.60;99.90
43842;DHT22;29495;49.970;20.842;2022-08-26T01:45:43;16.50;99.90
43842;DHT22;29495;49.970;20.842;2022-08-26T01:48:14;16.50;99.90
43842;DHT22;29495;49.970;20.842;2022-08-26T01:50:43;16.60;99.90
43842;DHT22;29495;49.970;20.842;2022-08-26T01:53:12;16.40;99.90
43842;DHT22;29495;49.970;20.842;2022-08-26T01:55:42;16.50;99.90
43842;DHT22;29495;49.970;20.842;2022-08-26T01:58:14;16.60;99.90
43842;DHT22;29495;49.970;20.842;2022-08-26T02:00:42;16.60;99.90
43842;DHT22;29495;49.970;20.842;2022-08-26T02:03:09;16.60;99.90
43842;DHT22;29495;49.970;20.842;2022-08-26T02:06:00;16.50;99.90
43842;DHT22;29495;49.970;20.842;2022-08-26T02:08:38;16.40;99.90
43842;DHT22;29495;49.970;20.842;2022-08-26T02:11:04;16.30;99.90
43842;DHT22;29495;49.970;20.842;2022-08-26T02:13:33;16.30;99.90
43842;DHT22;29495;49.970;20.842;2022-08-26T02:16:01;16.30;99.90
43842;DHT22;29495;49.970;20.842;2022-08-26T02:18:29;16.20;99.90
43842;DHT22;29495;49.970;20.842;2022-08-26T02:20:56;16.30;99.90
43842;DHT22;29495;49.970;20.842;2022-08-26T02:23:22;16.20;99.90
43842;DHT22;29495;49.970;20.842;2022-08-26T02:26:10;16.20;99.90
43842;DHT22;29495;49.970;20.842;2022-08-26T02:28:48;16.40;99.90
43842;DHT22;29495;49.970;20.842;2022-08-26T02:31:16;16.50;99.90
43842;DHT22;29495;49.970;20.842;2022-08-26T02:33:42;16.20;99.90
43842;DHT22;29495;49.970;20.842;2022-08-26T02:36:08;16.20;99.90
43842;DHT22;29495;49.970;20.842;2022-08-26T02:38:34;16.20;99.90
43842;DHT22;29495;49.970;20.842;2022-08-26T02:41:00;16.10;99.90
43842;DHT22;29495;49.970;20.842;2022-08-26T02:43:27;16.20;99.90
43842;DHT22;29495;49.970;20.842;2022-08-26T02:45:53;16.00;99.90
43842;DHT22;29495;49.970;20.842;2022-08-26T02:48:20;16.10;99.90
43842;DHT22;29495;49.970;20.842;2022-08-26T02:50:47;16.10;99.90
43842;DHT22;29495;49.970;20.842;2022-08-26T02:53:14;16.10;99.90
43842;DHT22;29495;49.970;20.842;2022-08-26T02:55:40;16.00;99.90
43842;DHT22;29495;49.970;20.842;2022-08-26T02:58:07;16.20;99.90
43842;DHT22;29495;49.970;20.842;2022-08-26T03:00:36;16.30;99.90
43842;DHT22;29495;49.970;20.842;2022-08-26T03:03:02;16.30;99.90
43842;DHT22;29495;49.970;20.842;2022-08-26T03:05:29;16.10;99.90
43842;DHT22;29495;49.970;20.842;2022-08-26T03:07:56;16.00;99.90
43842;DHT22;29495;49.970;20.842;2022-08-26T03:10:22;15.90;99.90
43842;DHT22;29495;49.970;20.842;2022-08-26T03:12:48;15.90;99.90
43842;DHT22;29495;49.970;20.842;2022-08-26T03:15:15;15.70;99.90
43842;DHT22;29495;49.970;20.842;2022-08-26T03:17:42;15.50;99.90
43842;DHT22;29495;49.970;20.842;2022-08-26T03:20:09;15.40;99.90
43842;DHT22;29495;49.970;20.842;2022-08-26T03:22:36;15.40;99.90
43842;DHT22;29495;49.970;20.842;2022-08-26T03:25:05;15.50;99.90
43842;DHT22;29495;49.970;20.842;2022-08-26T03:27:31;15.70;99.90
43842;DHT22;29495;49.970;20.842;2022-08-26T03:29:58;15.70;99.90
43842;DHT22;29495;49.970;20.842;2022-08-26T03:32:42;15.80;99.90
43842;DHT22;29495;49.970;20.842;2022-08-26T03:35:09;15.60;99.90
43842;DHT22;29495;49.970;20.842;2022-08-26T03:37:36;15.60;99.90
43842;DHT22;29495;49.970;20.842;2022-08-26T03:40:03;15.70;99.90
43842;DHT22;29495;49.970;20.842;2022-08-26T03:42:29;15.70;99.90
43842;DHT22;29495;49.970;20.842;2022-08-26T03:44:55;15.70;99.90
43842;DHT22;29495;49.970;20.842;2022-08-26T03:47:21;15.60;99.90
43842;DHT22;29495;49.970;20.842;2022-08-26T03:49:48;15.50;99.90
43842;DHT22;29495;49.970;20.842;2022-08-26T03:52:13;15.50;99.90
43842;DHT22;29495;49.970;20.842;2022-08-26T03:54:40;15.40;99.90
43842;DHT22;29495;49.970;20.842;2022-08-26T03:57:06;15.30;99.90
43842;DHT22;29495;49.970;20.842;2022-08-26T03:59:33;15.40;99.90
43842;DHT22;29495;49.970;20.842;2022-08-26T04:01:59;15.50;99.90
43842;DHT22;29495;49.970;20.842;2022-08-26T04:04:25;15.60;99.90
43842;DHT22;29495;49.970;20.842;2022-08-26T04:06:56;15.80;99.90
43842;DHT22;29495;49.970;20.842;2022-08-26T04:09:23;15.80;99.90
43842;DHT22;29495;49.970;20.842;2022-08-26T04:11:49;15.80;99.90
43842;DHT22;29495;49.970;20.842;2022-08-26T04:14:19;15.90;99.90
43842;DHT22;29495;49.970;20.842;2022-08-26T04:16:45;16.00;99.90
43842;DHT22;29495;49.970;20.842;2022-08-26T04:19:13;15.90;99.90
43842;DHT22;29495;49.970;20.842;2022-08-26T04:21:39;15.80;99.90
43842;DHT22;29495;49.970;20.842;2022-08-26T04:24:08;15.70;99.90
43842;DHT22;29495;49.970;20.842;2022-08-26T04:26:35;15.70;99.90
43842;DHT22;29495;49.970;20.842;2022-08-26T04:29:12;15.60;99.90
43842;DHT22;29495;49.970;20.842;2022-08-26T04:31:39;15.50;99.90
43842;DHT22;29495;49.970;20.842;2022-08-26T04:34:06;15.60;99.90
43842;DHT22;29495;49.970;20.842;2022-08-26T04:36:33;15.70;99.90
43842;DHT22;29495;49.970;20.842;2022-08-26T04:39:00;15.90;99.90
43842;DHT22;29495;49.970;20.842;2022-08-26T04:41:28;15.90;99.90
43842;DHT22;29495;49.970;20.842;2022-08-26T04:43:54;15.90;99.90
43842;DHT22;29495;49.970;20.842;2022-08-26T04:46:23;16.00;99.90
43842;DHT22;29495;49.970;20.842;2022-08-26T04:48:51;16.10;99.90
43842;DHT22;29495;49.970;20.842;2022-08-26T04:51:19;16.10;99.90
43842;DHT22;29495;49.970;20.842;2022-08-26T04:53:45;16.30;99.90
43842;DHT22;29495;49.970;20.842;2022-08-26T04:56:12;16.30;99.90
43842;DHT22;29495;49.970;20.842;2022-08-26T04:58:39;16.40;99.90
43842;DHT22;29495;49.970;20.842;2022-08-26T05:01:05;16.70;99.90
43842;DHT22;29495;49.970;20.842;2022-08-26T05:03:33;16.90;99.90
43842;DHT22;29495;49.970;20.842;2022-08-26T05:06:03;17.60;99.90
43842;DHT22;29495;49.970;20.842;2022-08-26T05:08:30;18.40;99.90
43842;DHT22;29495;49.970;20.842;2022-08-26T05:10:56;19.20;99.90
43842;DHT22;29495;49.970;20.842;2022-08-26T05:13:25;20.20;99.90
43842;DHT22;29495;49.970;20.842;2022-08-26T05:15:51;21.30;99.90
43842;DHT22;29495;49.970;20.842;2022-08-26T05:18:19;21.60;99.90
43842;DHT22;29495;49.970;20.842;2022-08-26T05:20:48;22.70;99.90
43842;DHT22;29495;49.970;20.842;2022-08-26T05:23:15;23.60;99.90
43842;DHT22;29495;49.970;20.842;2022-08-26T05:25:46;23.90;99.90
43842;DHT22;29495;49.970;20.842;2022-08-26T05:28:14;24.40;99.90
43842;DHT22;29495;49.970;20.842;2022-08-26T05:30:40;24.40;99.90
43842;DHT22;29495;49.970;20.842;2022-08-26T05:33:07;25.60;99.90
43842;DHT22;29495;49.970;20.842;2022-08-26T05:35:35;25.20;99.90
43842;DHT22;29495;49.970;20.842;2022-08-26T05:38:06;26.20;99.90
43842;DHT22;29495;49.970;20.842;2022-08-26T05:40:35;26.30;99.30
43842;DHT22;29495;49.970;20.842;2022-08-26T05:43:01;27.00;98.80
43842;DHT22;29495;49.970;20.842;2022-08-26T05:45:28;27.30;97.30
43842;DHT22;29495;49.970;20.842;2022-08-26T05:47:56;27.80;96.30
43842;DHT22;29495;49.970;20.842;2022-08-26T05:50:22;27.90;95.70
43842;DHT22;29495;49.970;20.842;2022-08-26T05:52:50;28.20;93.70
43842;DHT22;29495;49.970;20.842;2022-08-26T05:55:17;27.60;94.20
43842;DHT22;29495;49.970;20.842;2022-08-26T05:57:43;28.30;93.20
43842;DHT22;29495;49.970;20.842;2022-08-26T06:00:10;28.20;93.60
43842;DHT22;29495;49.970;20.842;2022-08-26T06:02:39;28.50;91.60
43842;DHT22;29495;49.970;20.842;2022-08-26T06:05:06;28.00;91.90
43842;DHT22;29495;49.970;20.842;2022-08-26T06:07:32;28.20;93.40
43842;DHT22;29495;49.970;20.842;2022-08-26T06:10:17;29.20;91.70
43842;DHT22;29495;49.970;20.842;2022-08-26T06:12:43;29.60;91.10
43842;DHT22;29495;49.970;20.842;2022-08-26T06:15:09;30.60;86.90
43842;DHT22;29495;49.970;20.842;2022-08-26T06:17:35;30.10;86.30
43842;DHT22;29495;49.970;20.842;2022-08-26T06:20:01;30.10;86.40
43842;DHT22;29495;49.970;20.842;2022-08-26T06:22:28;29.90;84.30
43842;DHT22;29495;49.970;20.842;2022-08-26T06:25:12;30.50;82.70
43842;DHT22;29495;49.970;20.842;2022-08-26T06:27:57;29.80;82.40
43842;DHT22;29495;49.970;20.842;2022-08-26T06:30:22;30.20;81.20
43842;DHT22;29495;49.970;20.842;2022-08-26T06:32:48;30.40;81.40
43842;DHT22;29495;49.970;20.842;2022-08-26T06:35:14;30.80;80.10
43842;DHT22;29495;49.970;20.842;2022-08-26T06:37:40;30.80;80.10
43842;DHT22;29495;49.970;20.842;2022-08-26T06:40:07;31.60;78.00
43842;DHT22;29495;49.970;20.842;2022-08-26T06:42:33;31.50;75.10
43842;DHT22;29495;49.970;20.842;2022-08-26T06:44:59;31.90;77.90
43842;DHT22;29495;49.970;20.842;2022-08-26T06:47:26;32.20;73.90
43842;DHT22;29495;49.970;20.842;2022-08-26T06:49:52;32.40;73.90
43842;DHT22;29495;49.970;20.842;2022-08-26T06:52:18;31.10;73.00
43842;DHT22;29495;49.970;20.842;2022-08-26T06:54:44;32.20;73.10
43842;DHT22;29495;49.970;20.842;2022-08-26T06:57:10;32.60;73.20
43842;DHT22;29495;49.970;20.842;2022-08-26T06:59:36;33.00;68.50
43842;DHT22;29495;49.970;20.842;2022-08-26T07:02:02;32.60;67.40
43842;DHT22;29495;49.970;20.842;2022-08-26T07:04:28;32.80;65.50
43842;DHT22;29495;49.970;20.842;2022-08-26T07:06:55;33.60;66.50
43842;DHT22;29495;49.970;20.842;2022-08-26T07:09:23;33.20;64.40
43842;DHT22;29495;49.970;20.842;2022-08-26T07:11:50;33.10;63.60
43842;DHT22;29495;49.970;20.842;2022-08-26T07:14:16;33.50;63.40
43842;DHT22;29495;49.970;20.842;2022-08-26T07:16:43;34.10;62.90
43842;DHT22;29495;49.970;20.842;2022-08-26T07:19:10;34.80;62.90
43842;DHT22;29495;49.970;20.842;2022-08-26T07:21:36;34.60;60.00
43842;DHT22;29495;49.970;20.842;2022-08-26T07:24:02;33.90;59.70
43842;DHT22;29495;49.970;20.842;2022-08-26T07:26:29;34.10;60.50
43842;DHT22;29495;49.970;20.842;2022-08-26T07:28:57;34.00;62.70
43842;DHT22;29495;49.970;20.842;2022-08-26T07:31:26;33.90;61.00
43842;DHT22;29495;49.970;20.842;2022-08-26T07:33:52;34.50;62.20
43842;DHT22;29495;49.970;20.842;2022-08-26T07:36:20;34.80;61.40
43842;DHT22;29495;49.970;20.842;2022-08-26T07:38:46;33.90;60.10
43842;DHT22;29495;49.970;20.842;2022-08-26T07:41:14;34.00;60.50
43842;DHT22;29495;49.970;20.842;2022-08-26T07:43:40;34.60;60.40
43842;DHT22;29495;49.970;20.842;2022-08-26T07:46:07;34.40;61.40
43842;DHT22;29495;49.970;20.842;2022-08-26T07:48:34;33.50;58.90
43842;DHT22;29495;49.970;20.842;2022-08-26T07:51:00;32.80;60.70
43842;DHT22;29495;49.970;20.842;2022-08-26T07:53:26;32.40;62.10
43842;DHT22;29495;49.970;20.842;2022-08-26T07:55:52;31.60;63.60
43842;DHT22;29495;49.970;20.842;2022-08-26T07:58:18;31.70;62.50
43842;DHT22;29495;49.970;20.842;2022-08-26T08:00:44;31.60;64.10
43842;DHT22;29495;49.970;20.842;2022-08-26T08:03:12;30.90;63.90
43842;DHT22;29495;49.970;20.842;2022-08-26T08:05:40;30.50;62.50
43842;DHT22;29495;49.970;20.842;2022-08-26T08:08:07;30.10;65.20
43842;DHT22;29495;49.970;20.842;2022-08-26T08:10:34;30.00;67.00
43842;DHT22;29495;49.970;20.842;2022-08-26T08:13:02;29.90;66.90
43842;DHT22;29495;49.970;20.842;2022-08-26T08:15:29;29.70;68.30
43842;DHT22;29495;49.970;20.842;2022-08-26T08:17:56;29.50;69.00
43842;DHT22;29495;49.970;20.842;2022-08-26T08:20:23;29.20;70.20
43842;DHT22;29495;49.970;20.842;2022-08-26T08:22:50;29.10;71.60
43842;DHT22;29495;49.970;20.842;2022-08-26T08:25:16;29.20;70.50
43842;DHT22;29495;49.970;20.842;2022-08-26T08:27:43;29.50;70.60
43842;DHT22;29495;49.970;20.842;2022-08-26T08:30:11;29.40;70.70
43842;DHT22;29495;49.970;20.842;2022-08-26T08:32:38;29.10;70.40
43842;DHT22;29495;49.970;20.842;2022-08-26T08:35:05;29.00;72.50
43842;DHT22;29495;49.970;20.842;2022-08-26T08:37:33;28.70;70.80
43842;DHT22;29495;49.970;20.842;2022-08-26T08:40:00;28.40;73.10
43842;DHT22;29495;49.970;20.842;2022-08-26T08:47:58;29.30;74.80
43842;DHT22;29495;49.970;20.842;2022-08-26T08:50:32;28.70;73.60
43842;DHT22;29495;49.970;20.842;2022-08-26T08:55:49;29.10;76.40
43842;DHT22;29495;49.970;20.842;2022-08-26T08:58:21;29.30;74.20
43842;DHT22;29495;49.970;20.842;2022-08-26T09:01:03;29.50;73.90
43842;DHT22;29495;49.970;20.842;2022-08-26T09:03:44;29.50;73.80
43842;DHT22;29495;49.970;20.842;2022-08-26T09:06:12;29.60;74.20
43842;DHT22;29495;49.970;20.842;2022-08-26T09:08:46;29.80;78.80
43842;DHT22;29495;49.970;20.842;2022-08-26T09:11:13;29.80;73.80
43842;DHT22;29495;49.970;20.842;2022-08-26T09:13:46;30.00;73.50
43842;DHT22;29495;49.970;20.842;2022-08-26T09:16:18;30.10;73.10
43842;DHT22;29495;49.970;20.842;2022-08-26T09:19:32;30.30;75.80
43842;DHT22;29495;49.970;20.842;2022-08-26T09:21:39;30.10;72.70
43842;DHT22;29495;49.970;20.842;2022-08-26T09:24:05;30.50;75.50
43842;DHT22;29495;49.970;20.842;2022-08-26T09:29:20;30.60;73.40
43842;DHT22;29495;49.970;20.842;2022-08-26T09:31:46;30.70;67.90
43842;DHT22;29495;49.970;20.842;2022-08-26T09:34:14;30.80;69.90
43842;DHT22;29495;49.970;20.842;2022-08-26T09:36:42;30.80;74.80
43842;DHT22;29495;49.970;20.842;2022-08-26T09:42:09;30.90;70.00
43842;DHT22;29495;49.970;20.842;2022-08-26T09:45:00;30.90;65.70
43842;DHT22;29495;49.970;20.842;2022-08-26T09:47:39;31.10;67.30
43842;DHT22;29495;49.970;20.842;2022-08-26T09:50:22;31.20;64.90
43842;DHT22;29495;49.970;20.842;2022-08-26T09:53:09;31.00;65.60
43842;DHT22;29495;49.970;20.842;2022-08-26T09:55:41;30.90;65.30
43842;DHT22;29495;49.970;20.842;2022-08-26T09:58:12;31.00;68.20
43842;DHT22;29495;49.970;20.842;2022-08-26T10:00:55;31.00;69.60
43842;DHT22;29495;49.970;20.842;2022-08-26T10:03:28;30.90;64.10
43842;DHT22;29495;49.970;20.842;2022-08-26T10:06:03;30.90;64.70
43842;DHT22;29495;49.970;20.842;2022-08-26T10:08:33;30.80;61.20
43842;DHT22;29495;49.970;20.842;2022-08-26T10:11:05;30.90;60.50
43842;DHT22;29495;49.970;20.842;2022-08-26T10:13:38;31.10;61.30
43842;DHT22;29495;49.970;20.842;2022-08-26T10:18:59;31.30;62.50
43842;DHT22;29495;49.970;20.842;2022-08-26T10:24:29;31.00;58.20
43842;DHT22;29495;49.970;20.842;2022-08-26T10:29:44;30.80;56.10
43842;DHT22;29495;49.970;20.842;2022-08-26T10:32:19;30.90;60.20
43842;DHT22;29495;49.970;20.842;2022-08-26T10:34:48;30.90;57.10
43842;DHT22;29495;49.970;20.842;2022-08-26T10:37:18;31.00;56.40
43842;DHT22;29495;49.970;20.842;2022-08-26T10:39:51;31.00;59.30
43842;DHT22;29495;49.970;20.842;2022-08-26T10:42:26;31.00;58.80
43842;DHT22;29495;49.970;20.842;2022-08-26T10:44:57;31.00;58.60
43842;DHT22;29495;49.970;20.842;2022-08-26T10:50:38;30.90;55.00
43842;DHT22;29495;49.970;20.842;2022-08-26T10:53:30;31.00;55.40
43842;DHT22;29495;49.970;20.842;2022-08-26T10:59:00;31.00;53.90
43842;DHT22;29495;49.970;20.842;2022-08-26T11:06:42;31.40;54.00
43842;DHT22;29495;49.970;20.842;2022-08-26T11:09:11;31.20;53.40
43842;DHT22;29495;49.970;20.842;2022-08-26T11:14:29;31.30;53.20
43842;DHT22;29495;49.970;20.842;2022-08-26T11:16:56;31.20;54.60
43842;DHT22;29495;49.970;20.842;2022-08-26T11:22:31;31.20;52.60
43842;DHT22;29495;49.970;20.842;2022-08-26T11:30:06;31.10;53.80
43842;DHT22;29495;49.970;20.842;2022-08-26T11:35:05;31.40;53.70
43842;DHT22;29495;49.970;20.842;2022-08-26T11:37:36;31.20;52.30
43842;DHT22;29495;49.970;20.842;2022-08-26T11:40:18;31.20;52.50
43842;DHT22;29495;49.970;20.842;2022-08-26T11:48:34;31.70;55.60
43842;DHT22;29495;49.970;20.842;2022-08-26T11:51:05;31.80;53.20
43842;DHT22;29495;49.970;20.842;2022-08-26T11:53:38;31.70;54.10
43842;DHT22;29495;49.970;20.842;2022-08-26T11:58:52;31.80;56.00
43842;DHT22;29495;49.970;20.842;2022-08-26T12:01:26;31.90;54.00
43842;DHT22;29495;49.970;20.842;2022-08-26T12:03:53;31.70;53.00
43842;DHT22;29495;49.970;20.842;2022-08-26T12:06:38;31.70;52.50
43842;DHT22;29495;49.970;20.842;2022-08-26T12:09:21;31.70;54.20
43842;DHT22;29495;49.970;20.842;2022-08-26T12:11:48;31.70;53.80
43842;DHT22;29495;49.970;20.842;2022-08-26T12:14:23;31.60;51.60
43842;DHT22;29495;49.970;20.842;2022-08-26T12:16:50;31.70;52.40
43842;DHT22;29495;49.970;20.842;2022-08-26T12:19:32;31.60;50.10
43842;DHT22;29495;49.970;20.842;2022-08-26T12:22:05;31.50;50.70
43842;DHT22;29495;49.970;20.842;2022-08-26T12:24:32;31.60;49.50
43842;DHT22;29495;49.970;20.842;2022-08-26T12:27:43;31.60;51.70
43842;DHT22;29495;49.970;20.842;2022-08-26T12:32:34;31.60;50.20
43842;DHT22;29495;49.970;20.842;2022-08-26T12:35:02;31.80;50.90
43842;DHT22;29495;49.970;20.842;2022-08-26T12:37:32;31.90;48.10
43842;DHT22;29495;49.970;20.842;2022-08-26T12:43:06;32.10;50.00
43842;DHT22;29495;49.970;20.842;2022-08-26T12:45:34;32.00;53.50
43842;DHT22;29495;49.970;20.842;2022-08-26T12:48:08;31.80;51.50
43842;DHT22;29495;49.970;20.842;2022-08-26T12:50:38;31.70;51.60
43842;DHT22;29495;49.970;20.842;2022-08-26T12:53:13;31.50;49.60
43842;DHT22;29495;49.970;20.842;2022-08-26T12:55:48;31.60;49.70
43842;DHT22;29495;49.970;20.842;2022-08-26T13:00:45;31.90;50.10
43842;DHT22;29495;49.970;20.842;2022-08-26T13:08:54;31.90;48.80
43842;DHT22;29495;49.970;20.842;2022-08-26T13:11:28;31.90;49.00
43842;DHT22;29495;49.970;20.842;2022-08-26T13:14:03;32.10;49.90
43842;DHT22;29495;49.970;20.842;2022-08-26T13:16:30;32.00;49.10
43842;DHT22;29495;49.970;20.842;2022-08-26T13:18:59;32.00;49.90
43842;DHT22;29495;49.970;20.842;2022-08-26T13:21:43;31.90;50.20
43842;DHT22;29495;49.970;20.842;2022-08-26T13:24:12;31.80;48.20
43842;DHT22;29495;49.970;20.842;2022-08-26T13:26:39;32.20;51.00
43842;DHT22;29495;49.970;20.842;2022-08-26T13:29:06;32.10;48.20
43842;DHT22;29495;49.970;20.842;2022-08-26T13:31:32;32.10;49.20
43842;DHT22;29495;49.970;20.842;2022-08-26T13:34:00;32.00;50.80
43842;DHT22;29495;49.970;20.842;2022-08-26T13:36:26;31.90;48.10
43842;DHT22;29495;49.970;20.842;2022-08-26T13:38:52;31.90;48.70
43842;DHT22;29495;49.970;20.842;2022-08-26T13:41:19;31.80;49.00
43842;DHT22;29495;49.970;20.842;2022-08-26T13:43:45;31.80;47.70
43842;DHT22;29495;49.970;20.842;2022-08-26T13:46:10;31.80;47.20
43842;DHT22;29495;49.970;20.842;2022-08-26T13:48:37;32.00;45.90
43842;DHT22;29495;49.970;20.842;2022-08-26T13:51:03;32.10;46.00
43842;DHT22;29495;49.970;20.842;2022-08-26T13:53:30;32.00;45.90
43842;DHT22;29495;49.970;20.842;2022-08-26T13:55:57;32.00;47.70
43842;DHT22;29495;49.970;20.842;2022-08-26T13:58:24;31.90;46.70
43842;DHT22;29495;49.970;20.842;2022-08-26T14:00:50;31.80;47.10
43842;DHT22;29495;49.970;20.842;2022-08-26T14:03:16;32.00;49.00
43842;DHT22;29495;49.970;20.842;2022-08-26T14:05:42;32.20;48.10
43842;DHT22;29495;49.970;20.842;2022-08-26T14:08:08;31.80;45.40
43842;DHT22;29495;49.970;20.842;2022-08-26T14:10:35;31.70;46.10
43842;DHT22;29495;49.970;20.842;2022-08-26T14:13:01;31.70;47.40
43842;DHT22;29495;49.970;20.842;2022-08-26T14:15:27;31.70;46.20
43842;DHT22;29495;49.970;20.842;2022-08-26T14:17:54;31.70;46.50
43842;DHT22;29495;49.970;20.842;2022-08-26T14:20:26;31.80;47.10
43842;DHT22;29495;49.970;20.842;2022-08-26T14:22:53;31.80;44.70
43842;DHT22;29495;49.970;20.842;2022-08-26T14:25:20;31.80;47.70
43842;DHT22;29495;49.970;20.842;2022-08-26T14:27:47;31.60;45.00
43842;DHT22;29495;49.970;20.842;2022-08-26T14:30:14;31.60;46.50
43842;DHT22;29495;49.970;20.842;2022-08-26T14:32:45;31.70;45.90
43842;DHT22;29495;49.970;20.842;2022-08-26T14:35:14;31.70;46.80
43842;DHT22;29495;49.970;20.842;2022-08-26T14:37:41;31.50;45.30
43842;DHT22;29495;49.970;20.842;2022-08-26T14:40:08;31.50;47.80
43842;DHT22;29495;49.970;20.842;2022-08-26T14:42:34;31.40;46.00
43842;DHT22;29495;49.970;20.842;2022-08-26T14:45:03;31.20;45.60
43842;DHT22;29495;49.970;20.842;2022-08-26T14:47:30;31.10;45.70
43842;DHT22;29495;49.970;20.842;2022-08-26T14:49:56;31.20;46.20
43842;DHT22;29495;49.970;20.842;2022-08-26T14:52:22;31.20;46.70
43842;DHT22;29495;49.970;20.842;2022-08-26T14:54:48;31.00;45.40
43842;DHT22;29495;49.970;20.842;2022-08-26T14:57:14;31.00;47.00
43842;DHT22;29495;49.970;20.842;2022-08-26T14:59:43;30.90;47.00
43842;DHT22;29495;49.970;20.842;2022-08-26T15:02:10;30.80;47.70
43842;DHT22;29495;49.970;20.842;2022-08-26T15:04:37;30.80;49.00
43842;DHT22;29495;49.970;20.842;2022-08-26T15:07:04;30.70;47.10
43842;DHT22;29495;49.970;20.842;2022-08-26T15:09:33;30.70;47.20
43842;DHT22;29495;49.970;20.842;2022-08-26T15:12:00;30.60;45.80
43842;DHT22;29495;49.970;20.842;2022-08-26T15:14:27;30.50;47.60
43842;DHT22;29495;49.970;20.842;2022-08-26T15:16:55;30.50;46.90
43842;DHT22;29495;49.970;20.842;2022-08-26T15:19:23;30.40;46.10
43842;DHT22;29495;49.970;20.842;2022-08-26T15:21:50;30.30;45.60
43842;DHT22;29495;49.970;20.842;2022-08-26T15:24:19;30.10;45.60
43842;DHT22;29495;49.970;20.842;2022-08-26T15:26:47;30.00;44.90
43842;DHT22;29495;49.970;20.842;2022-08-26T15:29:13;30.00;45.10
43842;DHT22;29495;49.970;20.842;2022-08-26T15:31:40;30.00;45.00
43842;DHT22;29495;49.970;20.842;2022-08-26T15:34:08;30.00;45.90
43842;DHT22;29495;49.970;20.842;2022-08-26T15:36:35;30.00;46.80
43842;DHT22;29495;49.970;20.842;2022-08-26T15:39:05;29.90;46.40
43842;DHT22;29495;49.970;20.842;2022-08-26T15:41:31;29.80;48.20
43842;DHT22;29495;49.970;20.842;2022-08-26T15:44:00;29.70;48.30
43842;DHT22;29495;49.970;20.842;2022-08-26T15:46:26;29.70;49.10
43842;DHT22;29495;49.970;20.842;2022-08-26T15:48:52;29.50;48.80
43842;DHT22;29495;49.970;20.842;2022-08-26T15:51:30;29.30;49.40
43842;DHT22;29495;49.970;20.842;2022-08-26T15:53:58;29.30;50.10
43842;DHT22;29495;49.970;20.842;2022-08-26T15:56:30;29.40;52.10
43842;DHT22;29495;49.970;20.842;2022-08-26T15:58:57;29.30;50.80
43842;DHT22;29495;49.970;20.842;2022-08-26T16:01:24;29.20;53.20
43842;DHT22;29495;49.970;20.842;2022-08-26T16:03:51;29.30;52.20
43842;DHT22;29495;49.970;20.842;2022-08-26T16:06:19;29.30;53.00
43842;DHT22;29495;49.970;20.842;2022-08-26T16:08:45;29.30;53.30
43842;DHT22;29495;49.970;20.842;2022-08-26T16:11:12;29.30;56.00
43842;DHT22;29495;49.970;20.842;2022-08-26T16:13:39;29.30;54.10
43842;DHT22;29495;49.970;20.842;2022-08-26T16:16:05;29.30;54.70
43842;DHT22;29495;49.970;20.842;2022-08-26T16:18:31;29.30;56.00
43842;DHT22;29495;49.970;20.842;2022-08-26T16:20:58;29.40;54.90
43842;DHT22;29495;49.970;20.842;2022-08-26T16:23:25;29.40;57.30
43842;DHT22;29495;49.970;20.842;2022-08-26T16:25:51;29.20;57.90
43842;DHT22;29495;49.970;20.842;2022-08-26T16:28:19;29.30;57.90
43842;DHT22;29495;49.970;20.842;2022-08-26T16:30:45;29.20;59.40
43842;DHT22;29495;49.970;20.842;2022-08-26T16:33:12;29.20;61.80
43842;DHT22;29495;49.970;20.842;2022-08-26T16:35:39;29.20;60.80